sensor_id;sensor_type;location;lat;lon;timestamp;temperature;humidity
24217;DHT22;12356;49.386;8.688;2024-02-21T00:01:45;9.90;28.10
24217;DHT22;12356;49.386;8.688;2024-02-21T00:04:15;9.90;28.10
24217;DHT22;12356;49.386;8.688;2024-02-21T00:06:46;9.90;27.90
24217;DHT22;12356;49.386;8.688;2024-02-21T00:09:17;9.90;27.60
24217;DHT22;12356;49.386;8.688;2024-02-21T00:11:49;9.90;27.50
24217;DHT22;12356;49.386;8.688;2024-02-21T00:14:20;9.90;27.90
24217;DHT22;12356;49.386;8.688;2024-02-21T00:16:50;9.90;27.80
24217;DHT22;12356;49.386;8.688;2024-02-21T00:19:21;9.90;28.00
24217;DHT22;12356;49.386;8.688;2024-02-21T00:21:51;9.80;27.90
24217;DHT22;12356;49.386;8.688;2024-02-21T00:24:22;9.80;27.90
24217;DHT22;12356;49.386;8.688;2024-02-21T00:26:53;9.80;28.30
24217;DHT22;12356;49.386;8.688;2024-02-21T00:29:24;9.80;28.40
24217;DHT22;12356;49.386;8.688;2024-02-21T00:31:55;9.80;28.50
24217;DHT22;12356;49.386;8.688;2024-02-21T00:34:25;9.80;28.20
24217;DHT22;12356;49.386;8.688;2024-02-21T00:36:56;9.80;28.20
24217;DHT22;12356;49.386;8.688;2024-02-21T00:39:27;9.80;28.60
24217;DHT22;12356;49.386;8.688;2024-02-21T00:41:58;9.80;28.80
24217;DHT22;12356;49.386;8.688;2024-02-21T00:44:28;9.80;28.80
24217;DHT22;12356;49.386;8.688;2024-02-21T00:46:59;9.70;28.90
24217;DHT22;12356;49.386;8.688;2024-02-21T00:49:29;9.80;29.20
24217;DHT22;12356;49.386;8.688;2024-02-21T00:52:00;9.70;29.00
24217;DHT22;12356;49.386;8.688;2024-02-21T00:54:30;9.80;29.00
24217;DHT22;12356;49.386;8.688;2024-02-21T00:57:01;9.80;29.10
24217;DHT22;12356;49.386;8.688;2024-02-21T00:59:32;9.80;29.40
24217;DHT22;12356;49.386;8.688;2024-02-21T01:02:02;9.80;29.40
24217;DHT22;12356;49.386;8.688;2024-02-21T01:04:33;9.80;29.30
24217;DHT22;12356;49.386;8.688;2024-02-21T01:07:04;9.80;29.70
24217;DHT22;12356;49.386;8.688;2024-02-21T01:09:35;9.80;30.60
24217;DHT22;12356;49.386;8.688;2024-02-21T01:12:06;9.80;32.10
24217;DHT22;12356;49.386;8.688;2024-02-21T01:14:36;9.80;33.60
24217;DHT22;12356;49.386;8.688;2024-02-21T01:17:07;9.70;33.80
24217;DHT22;12356;49.386;8.688;2024-02-21T01:19:37;9.80;34.30
24217;DHT22;12356;49.386;8.688;2024-02-21T01:22:09;9.70;34.50
24217;DHT22;12356;49.386;8.688;2024-02-21T01:24:39;9.70;35.30
24217;DHT22;12356;49.386;8.688;2024-02-21T01:27:10;9.70;35.10
24217;DHT22;12356;49.386;8.688;2024-02-21T01:29:40;9.70;36.00
24217;DHT22;12356;49.386;8.688;2024-02-21T01:32:11;9.70;36.30
24217;DHT22;12356;49.386;8.688;2024-02-21T01:34:41;9.70;35.90
24217;DHT22;12356;49.386;8.688;2024-02-21T01:37:12;9.70;36.30
24217;DHT22;12356;49.386;8.688;2024-02-21T01:39:42;9.70;36.20
24217;DHT22;12356;49.386;8.688;2024-02-21T01:42:13;9.70;36.20
24217;DHT22;12356;49.386;8.688;2024-02-21T01:44:43;9.70;36.30
24217;DHT22;12356;49.386;8.688;2024-02-21T01:47:14;9.70;36.00
24217;DHT22;12356;49.386;8.688;2024-02-21T01:49:45;9.70;36.20
24217;DHT22;12356;49.386;8.688;2024-02-21T01:52:16;9.60;35.80
24217;DHT22;12356;49.386;8.688;2024-02-21T01:54:47;9.60;36.00
24217;DHT22;12356;49.386;8.688;2024-02-21T01:57:18;9.60;36.20
24217;DHT22;12356;49.386;8.688;2024-02-21T01:59:49;9.60;36.50
24217;DHT22;12356;49.386;8.688;2024-02-21T02:02:20;9.60;37.00
24217;DHT22;12356;49.386;8.688;2024-02-21T02:04:51;9.60;37.00
24217;DHT22;12356;49.386;8.688;2024-02-21T02:07:23;9.60;37.10
24217;DHT22;12356;49.386;8.688;2024-02-21T02:09:53;9.60;36.90
24217;DHT22;12356;49.386;8.688;2024-02-21T02:12:24;9.60;37.00
24217;DHT22;12356;49.386;8.688;2024-02-21T02:14:59;9.60;36.70
24217;DHT22;12356;49.386;8.688;2024-02-21T02:17:30;9.60;37.50
24217;DHT22;12356;49.386;8.688;2024-02-21T02:20:00;9.60;37.40
24217;DHT22;12356;49.386;8.688;2024-02-21T02:22:32;9.60;37.50
24217;DHT22;12356;49.386;8.688;2024-02-21T02:25:04;9.60;38.20
24217;DHT22;12356;49.386;8.688;2024-02-21T02:27:41;9.50;37.70
24217;DHT22;12356;49.386;8.688;2024-02-21T02:30:14;9.50;38.50
24217;DHT22;12356;49.386;8.688;2024-02-21T02:32:45;9.50;37.90
24217;DHT22;12356;49.386;8.688;2024-02-21T02:35:18;9.50;38.50
24217;DHT22;12356;49.386;8.688;2024-02-21T02:37:49;9.50;38.50
24217;DHT22;12356;49.386;8.688;2024-02-21T02:40:21;9.50;38.20
24217;DHT22;12356;49.386;8.688;2024-02-21T02:42:51;9.50;38.20
24217;DHT22;12356;49.386;8.688;2024-02-21T02:45:25;9.60;37.90
24217;DHT22;12356;49.386;8.688;2024-02-21T02:47:56;9.60;38.60
24217;DHT22;12356;49.386;8.688;2024-02-21T02:50:28;9.50;38.50
24217;DHT22;12356;49.386;8.688;2024-02-21T02:52:58;9.50;38.50
24217;DHT22;12356;49.386;8.688;2024-02-21T02:55:29;9.40;39.10
24217;DHT22;12356;49.386;8.688;2024-02-21T02:57:59;9.40;38.80
24217;DHT22;12356;49.386;8.688;2024-02-21T03:00:30;9.40;39.50
24217;DHT22;12356;49.386;8.688;2024-02-21T03:03:01;9.40;38.70
24217;DHT22;12356;49.386;8.688;2024-02-21T03:05:34;9.40;39.20
24217;DHT22;12356;49.386;8.688;2024-02-21T03:08:05;9.40;39.40
24217;DHT22;12356;49.386;8.688;2024-02-21T03:10:37;9.40;39.10
24217;DHT22;12356;49.386;8.688;2024-02-21T03:13:08;9.40;38.60
24217;DHT22;12356;49.386;8.688;2024-02-21T03:15:39;9.40;38.30
24217;DHT22;12356;49.386;8.688;2024-02-21T03:18:10;9.40;38.10
24217;DHT22;12356;49.386;8.688;2024-02-21T03:20:40;9.50;38.20
24217;DHT22;12356;49.386;8.688;2024-02-21T03:23:11;9.50;37.70
24217;DHT22;12356;49.386;8.688;2024-02-21T03:25:41;9.40;37.90
24217;DHT22;12356;49.386;8.688;2024-02-21T03:28:12;9.40;38.20
24217;DHT22;12356;49.386;8.688;2024-02-21T03:30:43;9.40;37.90
24217;DHT22;12356;49.386;8.688;2024-02-21T03:33:13;9.40;37.30
24217;DHT22;12356;49.386;8.688;2024-02-21T03:35:44;9.40;37.70
24217;DHT22;12356;49.386;8.688;2024-02-21T03:38:14;9.40;37.30
24217;DHT22;12356;49.386;8.688;2024-02-21T03:40:45;9.40;37.00
24217;DHT22;12356;49.386;8.688;2024-02-21T03:43:16;9.40;37.00
24217;DHT22;12356;49.386;8.688;2024-02-21T03:45:46;9.40;36.30
24217;DHT22;12356;49.386;8.688;2024-02-21T03:48:17;9.30;36.90
24217;DHT22;12356;49.386;8.688;2024-02-21T03:50:47;9.30;37.00
24217;DHT22;12356;49.386;8.688;2024-02-21T03:53:18;9.30;36.00
24217;DHT22;12356;49.386;8.688;2024-02-21T03:55:49;9.30;35.80
24217;DHT22;12356;49.386;8.688;2024-02-21T03:58:19;9.30;35.90
24217;DHT22;12356;49.386;8.688;2024-02-21T04:00:50;9.30;36.10
24217;DHT22;12356;49.386;8.688;2024-02-21T04:03:20;9.30;35.50
24217;DHT22;12356;49.386;8.688;2024-02-21T04:05:51;9.30;35.50
24217;DHT22;12356;49.386;8.688;2024-02-21T04:08:22;9.30;35.30
24217;DHT22;12356;49.386;8.688;2024-02-21T04:10:53;9.30;35.50
24217;DHT22;12356;49.386;8.688;2024-02-21T04:13:24;9.30;34.80
24217;DHT22;12356;49.386;8.688;2024-02-21T04:15:54;9.30;35.00
24217;DHT22;12356;49.386;8.688;2024-02-21T04:18:25;9.30;35.70
24217;DHT22;12356;49.386;8.688;2024-02-21T04:20:55;9.30;35.30
24217;DHT22;12356;49.386;8.688;2024-02-21T04:23:26;9.30;35.30
24217;DHT22;12356;49.386;8.688;2024-02-21T04:25:56;9.30;35.80
24217;DHT22;12356;49.386;8.688;2024-02-21T04:28:27;9.30;35.80
24217;DHT22;12356;49.386;8.688;2024-02-21T04:30:57;9.30;35.90
24217;DHT22;12356;49.386;8.688;2024-02-21T04:33:28;9.40;35.50
24217;DHT22;12356;49.386;8.688;2024-02-21T04:35:58;9.40;34.90
24217;DHT22;12356;49.386;8.688;2024-02-21T04:38:31;9.40;34.80
24217;DHT22;12356;49.386;8.688;2024-02-21T04:41:01;9.40;34.30
24217;DHT22;12356;49.386;8.688;2024-02-21T04:43:32;9.30;34.80
24217;DHT22;12356;49.386;8.688;2024-02-21T04:46:03;9.30;34.60
24217;DHT22;12356;49.386;8.688;2024-02-21T04:48:34;9.30;34.60
24217;DHT22;12356;49.386;8.688;2024-02-21T04:51:05;9.30;35.30
24217;DHT22;12356;49.386;8.688;2024-02-21T04:53:36;9.40;34.30
24217;DHT22;12356;49.386;8.688;2024-02-21T04:56:06;9.40;34.00
24217;DHT22;12356;49.386;8.688;2024-02-21T04:58:40;9.40;33.70
24217;DHT22;12356;49.386;8.688;2024-02-21T05:01:11;9.40;34.20
24217;DHT22;12356;49.386;8.688;2024-02-21T05:03:41;9.30;34.40
24217;DHT22;12356;49.386;8.688;2024-02-21T05:06:12;9.20;33.90
24217;DHT22;12356;49.386;8.688;2024-02-21T05:08:42;9.20;34.50
24217;DHT22;12356;49.386;8.688;2024-02-21T05:11:13;9.20;34.90
24217;DHT22;12356;49.386;8.688;2024-02-21T05:13:43;9.20;34.50
24217;DHT22;12356;49.386;8.688;2024-02-21T05:16:14;9.10;34.40
24217;DHT22;12356;49.386;8.688;2024-02-21T05:18:45;9.00;34.90
24217;DHT22;12356;49.386;8.688;2024-02-21T05:21:15;9.00;35.30
24217;DHT22;12356;49.386;8.688;2024-02-21T05:23:46;9.00;35.50
24217;DHT22;12356;49.386;8.688;2024-02-21T05:26:21;9.00;35.50
24217;DHT22;12356;49.386;8.688;2024-02-21T05:28:52;8.90;34.80
24217;DHT22;12356;49.386;8.688;2024-02-21T05:31:23;8.90;35.10
24217;DHT22;12356;49.386;8.688;2024-02-21T05:33:54;8.90;34.80
24217;DHT22;12356;49.386;8.688;2024-02-21T05:36:24;8.90;34.20
24217;DHT22;12356;49.386;8.688;2024-02-21T05:38:55;8.90;34.50
24217;DHT22;12356;49.386;8.688;2024-02-21T05:41:25;8.90;34.00
24217;DHT22;12356;49.386;8.688;2024-02-21T05:43:57;8.80;33.30
24217;DHT22;12356;49.386;8.688;2024-02-21T05:46:27;8.80;33.20
24217;DHT22;12356;49.386;8.688;2024-02-21T05:48:58;8.80;32.90
24217;DHT22;12356;49.386;8.688;2024-02-21T05:51:32;8.80;33.00
24217;DHT22;12356;49.386;8.688;2024-02-21T05:54:03;8.80;31.90
24217;DHT22;12356;49.386;8.688;2024-02-21T05:56:34;8.80;32.00
24217;DHT22;12356;49.386;8.688;2024-02-21T05:59:04;8.80;31.30
24217;DHT22;12356;49.386;8.688;2024-02-21T06:01:35;8.80;30.90
24217;DHT22;12356;49.386;8.688;2024-02-21T06:04:06;8.90;30.30
24217;DHT22;12356;49.386;8.688;2024-02-21T06:06:36;8.80;30.10
24217;DHT22;12356;49.386;8.688;2024-02-21T06:09:07;8.80;30.60
24217;DHT22;12356;49.386;8.688;2024-02-21T06:11:37;8.80;31.10
24217;DHT22;12356;49.386;8.688;2024-02-21T06:14:08;8.80;30.80
24217;DHT22;12356;49.386;8.688;2024-02-21T06:16:38;8.70;30.50
24217;DHT22;12356;49.386;8.688;2024-02-21T06:19:09;8.70;30.30
24217;DHT22;12356;49.386;8.688;2024-02-21T06:21:39;8.80;30.90
24217;DHT22;12356;49.386;8.688;2024-02-21T06:24:10;8.70;30.30
24217;DHT22;12356;49.386;8.688;2024-02-21T06:26:42;8.70;30.20
24217;DHT22;12356;49.386;8.688;2024-02-21T06:29:13;8.60;30.10
24217;DHT22;12356;49.386;8.688;2024-02-21T06:31:44;8.70;30.10
24217;DHT22;12356;49.386;8.688;2024-02-21T06:34:14;8.60;29.90
24217;DHT22;12356;49.386;8.688;2024-02-21T06:36:45;8.60;29.60
24217;DHT22;12356;49.386;8.688;2024-02-21T06:39:16;8.70;30.00
24217;DHT22;12356;49.386;8.688;2024-02-21T06:41:46;8.70;29.80
24217;DHT22;12356;49.386;8.688;2024-02-21T06:44:18;8.70;29.60
24217;DHT22;12356;49.386;8.688;2024-02-21T06:46:49;8.70;29.50
24217;DHT22;12356;49.386;8.688;2024-02-21T06:49:19;8.80;29.50
24217;DHT22;12356;49.386;8.688;2024-02-21T06:51:50;8.80;29.00
24217;DHT22;12356;49.386;8.688;2024-02-21T06:54:20;8.80;28.80
24217;DHT22;12356;49.386;8.688;2024-02-21T06:56:51;8.80;28.40
24217;DHT22;12356;49.386;8.688;2024-02-21T06:59:21;8.80;28.50
24217;DHT22;12356;49.386;8.688;2024-02-21T07:01:54;8.80;28.20
24217;DHT22;12356;49.386;8.688;2024-02-21T07:04:25;8.80;28.30
24217;DHT22;12356;49.386;8.688;2024-02-21T07:06:57;8.80;28.70
24217;DHT22;12356;49.386;8.688;2024-02-21T07:09:27;8.80;28.40
24217;DHT22;12356;49.386;8.688;2024-02-21T07:12:02;8.80;28.30
24217;DHT22;12356;49.386;8.688;2024-02-21T07:14:35;8.80;28.60
24217;DHT22;12356;49.386;8.688;2024-02-21T07:17:05;8.90;28.90
24217;DHT22;12356;49.386;8.688;2024-02-21T07:19:36;8.90;28.80
24217;DHT22;12356;49.386;8.688;2024-02-21T07:22:06;9.00;29.00
24217;DHT22;12356;49.386;8.688;2024-02-21T07:24:37;8.90;28.10
24217;DHT22;12356;49.386;8.688;2024-02-21T07:27:08;9.00;28.20
24217;DHT22;12356;49.386;8.688;2024-02-21T07:29:38;9.00;27.30
24217;DHT22;12356;49.386;8.688;2024-02-21T07:32:09;9.00;27.50
24217;DHT22;12356;49.386;8.688;2024-02-21T07:34:39;9.00;27.50
24217;DHT22;12356;49.386;8.688;2024-02-21T07:37:10;9.00;27.80
24217;DHT22;12356;49.386;8.688;2024-02-21T07:39:41;9.00;27.50
24217;DHT22;12356;49.386;8.688;2024-02-21T07:42:11;9.10;27.90
24217;DHT22;12356;49.386;8.688;2024-02-21T07:44:42;9.10;27.80
24217;DHT22;12356;49.386;8.688;2024-02-21T07:47:12;9.00;27.80
24217;DHT22;12356;49.386;8.688;2024-02-21T07:49:46;9.10;27.70
24217;DHT22;12356;49.386;8.688;2024-02-21T07:52:19;9.10;27.60
24217;DHT22;12356;49.386;8.688;2024-02-21T07:54:50;9.10;27.30
24217;DHT22;12356;49.386;8.688;2024-02-21T07:57:20;9.10;27.30
24217;DHT22;12356;49.386;8.688;2024-02-21T07:59:52;9.20;27.70
24217;DHT22;12356;49.386;8.688;2024-02-21T08:02:22;9.20;27.60
24217;DHT22;12356;49.386;8.688;2024-02-21T08:04:53;9.20;27.70
24217;DHT22;12356;49.386;8.688;2024-02-21T08:07:24;9.30;27.50
24217;DHT22;12356;49.386;8.688;2024-02-21T08:09:54;9.30;27.30
24217;DHT22;12356;49.386;8.688;2024-02-21T08:12:25;9.30;26.90
24217;DHT22;12356;49.386;8.688;2024-02-21T08:14:55;9.30;27.00
24217;DHT22;12356;49.386;8.688;2024-02-21T08:17:26;9.30;27.00
24217;DHT22;12356;49.386;8.688;2024-02-21T08:19:56;9.30;26.50
24217;DHT22;12356;49.386;8.688;2024-02-21T08:22:27;9.30;26.90
24217;DHT22;12356;49.386;8.688;2024-02-21T08:24:58;9.30;26.60
24217;DHT22;12356;49.386;8.688;2024-02-21T08:27:28;9.30;26.70
24217;DHT22;12356;49.386;8.688;2024-02-21T08:29:59;9.30;26.30
24217;DHT22;12356;49.386;8.688;2024-02-21T08:32:29;9.40;26.50
24217;DHT22;12356;49.386;8.688;2024-02-21T08:35:00;9.40;26.60
24217;DHT22;12356;49.386;8.688;2024-02-21T08:37:31;9.50;25.70
24217;DHT22;12356;49.386;8.688;2024-02-21T08:40:01;9.50;25.40
24217;DHT22;12356;49.386;8.688;2024-02-21T08:42:41;9.50;26.20
24217;DHT22;12356;49.386;8.688;2024-02-21T08:45:12;9.50;26.00
24217;DHT22;12356;49.386;8.688;2024-02-21T08:47:43;9.50;26.10
24217;DHT22;12356;49.386;8.688;2024-02-21T08:50:14;9.50;25.90
24217;DHT22;12356;49.386;8.688;2024-02-21T08:52:45;9.60;25.80
24217;DHT22;12356;49.386;8.688;2024-02-21T08:55:15;9.60;25.80
24217;DHT22;12356;49.386;8.688;2024-02-21T08:57:46;9.60;25.30
24217;DHT22;12356;49.386;8.688;2024-02-21T09:00:17;9.50;26.20
24217;DHT22;12356;49.386;8.688;2024-02-21T09:02:47;9.60;26.30
24217;DHT22;12356;49.386;8.688;2024-02-21T09:05:18;9.60;25.20
24217;DHT22;12356;49.386;8.688;2024-02-21T09:07:49;9.60;25.00
24217;DHT22;12356;49.386;8.688;2024-02-21T09:10:20;9.60;25.80
24217;DHT22;12356;49.386;8.688;2024-02-21T09:12:51;9.60;25.10
24217;DHT22;12356;49.386;8.688;2024-02-21T09:15:21;9.60;25.00
24217;DHT22;12356;49.386;8.688;2024-02-21T09:17:52;9.60;24.90
24217;DHT22;12356;49.386;8.688;2024-02-21T09:20:22;9.60;25.50
24217;DHT22;12356;49.386;8.688;2024-02-21T09:22:53;9.70;26.20
24217;DHT22;12356;49.386;8.688;2024-02-21T09:25:24;9.70;25.00
24217;DHT22;12356;49.386;8.688;2024-02-21T09:27:55;9.70;25.00
24217;DHT22;12356;49.386;8.688;2024-02-21T09:30:25;9.70;25.20
24217;DHT22;12356;49.386;8.688;2024-02-21T09:32:56;9.80;24.60
24217;DHT22;12356;49.386;8.688;2024-02-21T09:35:29;9.80;24.50
24217;DHT22;12356;49.386;8.688;2024-02-21T09:38:00;9.90;24.60
24217;DHT22;12356;49.386;8.688;2024-02-21T09:40:31;9.90;24.30
24217;DHT22;12356;49.386;8.688;2024-02-21T09:43:03;9.90;23.80
24217;DHT22;12356;49.386;8.688;2024-02-21T09:45:40;10.00;22.60
24217;DHT22;12356;49.386;8.688;2024-02-21T09:48:24;10.00;22.80
24217;DHT22;12356;49.386;8.688;2024-02-21T09:50:57;10.00;22.80
24217;DHT22;12356;49.386;8.688;2024-02-21T09:53:30;10.10;23.60
24217;DHT22;12356;49.386;8.688;2024-02-21T09:56:03;10.10;22.70
24217;DHT22;12356;49.386;8.688;2024-02-21T09:58:34;10.20;23.00
24217;DHT22;12356;49.386;8.688;2024-02-21T10:01:05;10.30;24.50
24217;DHT22;12356;49.386;8.688;2024-02-21T10:03:37;10.30;22.50
24217;DHT22;12356;49.386;8.688;2024-02-21T10:06:08;10.40;21.90
24217;DHT22;12356;49.386;8.688;2024-02-21T10:08:39;10.40;22.70
24217;DHT22;12356;49.386;8.688;2024-02-21T10:11:10;10.40;22.10
24217;DHT22;12356;49.386;8.688;2024-02-21T10:13:40;10.50;21.60
24217;DHT22;12356;49.386;8.688;2024-02-21T10:16:12;10.60;22.40
24217;DHT22;12356;49.386;8.688;2024-02-21T10:18:42;10.70;21.60
24217;DHT22;12356;49.386;8.688;2024-02-21T10:21:13;10.70;22.10
24217;DHT22;12356;49.386;8.688;2024-02-21T10:23:48;10.70;20.70
24217;DHT22;12356;49.386;8.688;2024-02-21T10:26:19;10.70;20.30
24217;DHT22;12356;49.386;8.688;2024-02-21T10:28:50;10.80;19.60
24217;DHT22;12356;49.386;8.688;2024-02-21T10:31:26;10.90;20.20
24217;DHT22;12356;49.386;8.688;2024-02-21T10:33:58;10.90;19.70
24217;DHT22;12356;49.386;8.688;2024-02-21T10:36:29;10.90;18.70
24217;DHT22;12356;49.386;8.688;2024-02-21T10:39:00;11.00;18.10
24217;DHT22;12356;49.386;8.688;2024-02-21T10:41:31;11.00;17.60
24217;DHT22;12356;49.386;8.688;2024-02-21T10:44:05;11.00;17.70
24217;DHT22;12356;49.386;8.688;2024-02-21T10:46:37;11.00;17.20
24217;DHT22;12356;49.386;8.688;2024-02-21T10:49:10;11.10;17.10
24217;DHT22;12356;49.386;8.688;2024-02-21T10:51:44;11.20;17.10
24217;DHT22;12356;49.386;8.688;2024-02-21T10:57:05;11.20;16.80
24217;DHT22;12356;49.386;8.688;2024-02-21T10:59:37;11.20;15.80
24217;DHT22;12356;49.386;8.688;2024-02-21T11:02:08;11.20;14.60
24217;DHT22;12356;49.386;8.688;2024-02-21T11:04:39;11.30;13.80
24217;DHT22;12356;49.386;8.688;2024-02-21T11:07:10;11.30;14.10
24217;DHT22;12356;49.386;8.688;2024-02-21T11:09:51;11.40;14.60
24217;DHT22;12356;49.386;8.688;2024-02-21T11:12:25;11.40;13.20
24217;DHT22;12356;49.386;8.688;2024-02-21T11:15:07;11.40;13.20
24217;DHT22;12356;49.386;8.688;2024-02-21T11:17:38;11.40;12.10
24217;DHT22;12356;49.386;8.688;2024-02-21T11:20:15;11.40;10.70
24217;DHT22;12356;49.386;8.688;2024-02-21T11:22:45;11.50;11.60
24217;DHT22;12356;49.386;8.688;2024-02-21T11:25:21;11.50;11.30
24217;DHT22;12356;49.386;8.688;2024-02-21T11:27:59;11.50;10.90
24217;DHT22;12356;49.386;8.688;2024-02-21T11:30:31;11.50;10.10
24217;DHT22;12356;49.386;8.688;2024-02-21T11:33:05;11.60;10.70
24217;DHT22;12356;49.386;8.688;2024-02-21T11:35:37;11.60;11.20
24217;DHT22;12356;49.386;8.688;2024-02-21T11:38:13;11.60;10.10
24217;DHT22;12356;49.386;8.688;2024-02-21T11:40:46;11.60;8.70
24217;DHT22;12356;49.386;8.688;2024-02-21T11:43:17;11.70;9.60
24217;DHT22;12356;49.386;8.688;2024-02-21T11:45:48;11.70;9.70
24217;DHT22;12356;49.386;8.688;2024-02-21T11:48:20;11.70;8.20
24217;DHT22;12356;49.386;8.688;2024-02-21T11:50:55;11.60;8.20
24217;DHT22;12356;49.386;8.688;2024-02-21T11:53:26;11.70;8.30
24217;DHT22;12356;49.386;8.688;2024-02-21T11:56:01;11.70;7.80
24217;DHT22;12356;49.386;8.688;2024-02-21T11:58:32;11.70;7.00
24217;DHT22;12356;49.386;8.688;2024-02-21T12:01:03;11.70;6.10
24217;DHT22;12356;49.386;8.688;2024-02-21T12:03:35;11.70;7.10
24217;DHT22;12356;49.386;8.688;2024-02-21T12:06:06;11.70;7.30
24217;DHT22;12356;49.386;8.688;2024-02-21T12:08:41;11.70;7.10
24217;DHT22;12356;49.386;8.688;2024-02-21T12:11:22;11.70;7.10
24217;DHT22;12356;49.386;8.688;2024-02-21T12:14:03;11.70;7.70
24217;DHT22;12356;49.386;8.688;2024-02-21T12:16:35;11.80;8.00
24217;DHT22;12356;49.386;8.688;2024-02-21T12:19:07;11.80;6.50
24217;DHT22;12356;49.386;8.688;2024-02-21T12:21:39;11.80;5.80
24217;DHT22;12356;49.386;8.688;2024-02-21T12:24:24;11.90;6.30
24217;DHT22;12356;49.386;8.688;2024-02-21T12:26:56;11.90;6.80
24217;DHT22;12356;49.386;8.688;2024-02-21T12:29:27;11.90;6.60
24217;DHT22;12356;49.386;8.688;2024-02-21T12:31:59;11.90;7.00
24217;DHT22;12356;49.386;8.688;2024-02-21T12:34:30;11.90;6.30
24217;DHT22;12356;49.386;8.688;2024-02-21T12:37:02;11.90;6.20
24217;DHT22;12356;49.386;8.688;2024-02-21T12:39:33;12.00;6.60
24217;DHT22;12356;49.386;8.688;2024-02-21T12:42:04;12.00;5.10
24217;DHT22;12356;49.386;8.688;2024-02-21T12:44:35;12.00;5.50
24217;DHT22;12356;49.386;8.688;2024-02-21T12:47:06;12.00;5.60
24217;DHT22;12356;49.386;8.688;2024-02-21T12:49:36;12.00;5.20
24217;DHT22;12356;49.386;8.688;2024-02-21T12:52:07;11.90;6.00
24217;DHT22;12356;49.386;8.688;2024-02-21T12:54:38;12.00;6.20
24217;DHT22;12356;49.386;8.688;2024-02-21T12:57:08;12.00;5.80
24217;DHT22;12356;49.386;8.688;2024-02-21T12:59:39;12.00;5.30
24217;DHT22;12356;49.386;8.688;2024-02-21T13:02:10;12.00;5.40
24217;DHT22;12356;49.386;8.688;2024-02-21T13:04:40;12.00;6.50
24217;DHT22;12356;49.386;8.688;2024-02-21T13:07:12;12.00;5.10
24217;DHT22;12356;49.386;8.688;2024-02-21T13:09:42;12.10;5.50
24217;DHT22;12356;49.386;8.688;2024-02-21T13:12:13;12.10;5.20
24217;DHT22;12356;49.386;8.688;2024-02-21T13:14:44;12.10;4.90
24217;DHT22;12356;49.386;8.688;2024-02-21T13:17:15;12.10;5.30
24217;DHT22;12356;49.386;8.688;2024-02-21T13:19:47;12.20;5.90
24217;DHT22;12356;49.386;8.688;2024-02-21T13:22:17;12.20;5.30
24217;DHT22;12356;49.386;8.688;2024-02-21T13:24:50;12.20;4.10
24217;DHT22;12356;49.386;8.688;2024-02-21T13:27:21;12.20;3.40
24217;DHT22;12356;49.386;8.688;2024-02-21T13:30:05;12.20;2.10
24217;DHT22;12356;49.386;8.688;2024-02-21T13:32:38;12.20;3.80
24217;DHT22;12356;49.386;8.688;2024-02-21T13:35:09;12.20;2.30
24217;DHT22;12356;49.386;8.688;2024-02-21T13:37:42;12.20;2.90
24217;DHT22;12356;49.386;8.688;2024-02-21T13:40:12;12.20;1.60
24217;DHT22;12356;49.386;8.688;2024-02-21T13:42:44;12.20;1.60
24217;DHT22;12356;49.386;8.688;2024-02-21T13:45:14;12.20;2.30
24217;DHT22;12356;49.386;8.688;2024-02-21T13:47:45;12.20;2.70
24217;DHT22;12356;49.386;8.688;2024-02-21T13:50:16;12.20;2.90
24217;DHT22;12356;49.386;8.688;2024-02-21T13:52:47;12.20;2.60
24217;DHT22;12356;49.386;8.688;2024-02-21T13:55:18;12.20;2.30
24217;DHT22;12356;49.386;8.688;2024-02-21T13:57:49;12.20;2.90
24217;DHT22;12356;49.386;8.688;2024-02-21T14:00:19;12.20;1.80
24217;DHT22;12356;49.386;8.688;2024-02-21T14:02:50;12.20;1.90
24217;DHT22;12356;49.386;8.688;2024-02-21T14:05:21;12.20;2.30
24217;DHT22;12356;49.386;8.688;2024-02-21T14:07:52;12.20;1.20
24217;DHT22;12356;49.386;8.688;2024-02-21T14:10:24;12.20;1.50
24217;DHT22;12356;49.386;8.688;2024-02-21T14:12:55;12.20;1.20
24217;DHT22;12356;49.386;8.688;2024-02-21T14:15:27;12.20;1.80
24217;DHT22;12356;49.386;8.688;2024-02-21T14:17:58;12.20;1.00
24217;DHT22;12356;49.386;8.688;2024-02-21T14:20:29;12.30;1.00
24217;DHT22;12356;49.386;8.688;2024-02-21T14:23:01;12.20;1.00
24217;DHT22;12356;49.386;8.688;2024-02-21T14:25:31;12.20;1.00
24217;DHT22;12356;49.386;8.688;2024-02-21T14:28:03;12.20;1.00
24217;DHT22;12356;49.386;8.688;2024-02-21T14:30:34;12.20;1.00
24217;DHT22;12356;49.386;8.688;2024-02-21T14:33:05;12.10;1.00
24217;DHT22;12356;49.386;8.688;2024-02-21T14:35:36;12.20;1.00
24217;DHT22;12356;49.386;8.688;2024-02-21T14:38:06;12.10;1.00
24217;DHT22;12356;49.386;8.688;2024-02-21T14:40:37;12.10;1.00
24217;DHT22;12356;49.386;8.688;2024-02-21T14:43:08;12.10;1.00
24217;DHT22;12356;49.386;8.688;2024-02-21T14:45:39;12.10;1.00
24217;DHT22;12356;49.386;8.688;2024-02-21T14:48:10;12.10;1.00
24217;DHT22;12356;49.386;8.688;2024-02-21T14:50:41;12.10;1.00
24217;DHT22;12356;49.386;8.688;2024-02-21T14:53:12;12.20;1.00
24217;DHT22;12356;49.386;8.688;2024-02-21T14:55:43;12.10;1.00
24217;DHT22;12356;49.386;8.688;2024-02-21T14:58:14;12.10;1.00
24217;DHT22;12356;49.386;8.688;2024-02-21T15:00:46;12.10;1.00
24217;DHT22;12356;49.386;8.688;2024-02-21T15:03:17;12.10;1.00
24217;DHT22;12356;49.386;8.688;2024-02-21T15:05:51;12.10;1.00
24217;DHT22;12356;49.386;8.688;2024-02-21T15:08:21;12.10;1.00
24217;DHT22;12356;49.386;8.688;2024-02-21T15:10:52;12.10;1.00
24217;DHT22;12356;49.386;8.688;2024-02-21T15:13:22;12.10;1.00
24217;DHT22;12356;49.386;8.688;2024-02-21T15:15:53;12.20;1.00
24217;DHT22;12356;49.386;8.688;2024-02-21T15:18:24;12.10;1.00
24217;DHT22;12356;49.386;8.688;2024-02-21T15:20:55;12.10;1.00
24217;DHT22;12356;49.386;8.688;2024-02-21T15:23:26;12.10;1.00
24217;DHT22;12356;49.386;8.688;2024-02-21T15:25:56;12.10;1.00
24217;DHT22;12356;49.386;8.688;2024-02-21T15:28:27;12.10;1.00
24217;DHT22;12356;49.386;8.688;2024-02-21T15:30:59;12.00;1.00
24217;DHT22;12356;49.386;8.688;2024-02-21T15:33:29;12.00;1.00
24217;DHT22;12356;49.386;8.688;2024-02-21T15:36:00;12.00;1.00
24217;DHT22;12356;49.386;8.688;2024-02-21T15:38:31;12.00;1.00
24217;DHT22;12356;49.386;8.688;2024-02-21T15:41:01;12.00;1.00
24217;DHT22;12356;49.386;8.688;2024-02-21T15:43:32;12.00;1.00
24217;DHT22;12356;49.386;8.688;2024-02-21T15:46:02;12.00;1.00
24217;DHT22;12356;49.386;8.688;2024-02-21T15:48:33;12.00;1.00
24217;DHT22;12356;49.386;8.688;2024-02-21T15:51:06;12.00;1.00
24217;DHT22;12356;49.386;8.688;2024-02-21T15:53:36;11.90;1.00
24217;DHT22;12356;49.386;8.688;2024-02-21T15:56:08;11.90;1.00
24217;DHT22;12356;49.386;8.688;2024-02-21T15:58:40;11.90;1.00
24217;DHT22;12356;49.386;8.688;2024-02-21T16:01:10;11.90;1.00
24217;DHT22;12356;49.386;8.688;2024-02-21T16:03:42;11.90;1.00
24217;DHT22;12356;49.386;8.688;2024-02-21T16:06:12;11.90;1.00
24217;DHT22;12356;49.386;8.688;2024-02-21T16:08:43;11.90;1.00
24217;DHT22;12356;49.386;8.688;2024-02-21T16:11:14;11.90;1.00
24217;DHT22;12356;49.386;8.688;2024-02-21T16:13:46;11.90;1.00